Time;durP1;ratioP1;P1;durP2;ratioP2;P2;SDS_P1;SDS_P2;PMS_P1;PMS_P2;Temp;Humidity;BMP_temperature;BMP_pressure;BME280_temperature;BME280_humidity;BME280_pressure;Samples;Min_cycle;Max_cycle;Signal;HPM_P1;HPM_P2
2022/10/19 00:00:30;;;;;;;5.00;3.70;;;;;19.50;101713.00;;;;2063507;28;20390;-52
2022/10/19 00:01:30;;;;;;;3.87;3.27;;;;;19.50;101718.00;;;;2064409;28;20239;-52
2022/10/19 00:02:30;;;;;;;3.20;2.90;;;;;19.50;101714.00;;;;2070750;28;20225;-52
2022/10/19 00:03:31;;;;;;;3.67;3.30;;;;;19.50;101708.00;;;;2071727;28;20210;-51
2022/10/19 00:04:31;;;;;;;4.33;3.73;;;;;19.50;101715.00;;;;2067912;28;20245;-50
2022/10/19 00:05:32;;;;;;;3.37;3.07;;;;;19.50;101710.00;;;;2072008;28;20218;-50
2022/10/19 00:06:33;;;;;;;3.57;3.10;;;;;19.50;101712.00;;;;2071588;28;20276;-52
2022/10/19 00:07:34;;;;;;;3.22;3.03;;;;;19.50;101717.00;;;;2071642;28;20214;-52
2022/10/19 00:08:35;;;;;;;3.77;3.40;;;;;19.50;101716.00;;;;2071574;28;20306;-52
2022/10/19 00:09:35;;;;;;;3.47;3.17;;;;;19.50;101716.00;;;;2071623;28;20212;-50
2022/10/19 00:10:39;;;;;;;3.70;3.40;;;;;19.50;101709.00;;;;2065916;28;20211;-52
2022/10/19 00:11:42;;;;;;;3.03;2.72;;;;;19.50;101635.00;;;;2059431;28;20313;-51
2022/10/19 00:12:42;;;;;;;3.60;3.30;;;;;19.50;101718.00;;;;2060639;28;20214;-50
2022/10/19 00:13:42;;;;;;;3.53;3.23;;;;;19.50;101724.00;;;;2068449;28;20702;-52
2022/10/19 00:14:43;;;;;;;3.37;3.07;;;;;19.50;101717.00;;;;2071364;28;20231;-50
2022/10/19 00:15:44;;;;;;;4.43;3.67;;;;;19.50;101721.00;;;;2060817;28;20219;-52
2022/10/19 00:16:45;;;;;;;3.63;3.30;;;;;19.50;101721.00;;;;2063522;28;20229;-50
2022/10/19 00:17:45;;;;;;;4.10;3.40;;;;;19.50;101646.00;;;;2063053;28;20250;-51
2022/10/19 00:18:45;;;;;;;3.50;3.20;;;;;19.50;101717.00;;;;2059709;28;20457;-51
2022/10/19 00:19:46;;;;;;;3.57;3.27;;;;;19.50;101716.00;;;;2071561;28;20571;-51
2022/10/19 00:20:46;;;;;;;3.40;3.10;;;;;19.50;101720.00;;;;2071455;28;20221;-51
2022/10/19 00:21:46;;;;;;;3.50;3.00;;;;;19.50;101717.00;;;;2071311;28;20241;-52
2022/10/19 00:22:49;;;;;;;4.47;3.67;;;;;19.50;101718.00;;;;2071026;28;20217;-51
2022/10/19 00:23:49;;;;;;;3.72;3.30;;;;;19.50;101723.00;;;;2063741;28;20215;-52
2022/10/19 00:24:50;;;;;;;3.30;3.00;;;;;19.50;101725.00;;;;2062824;28;20722;-52
2022/10/19 00:25:55;;;;;;;3.40;3.10;;;;;19.50;101718.00;;;;2069987;28;20242;-52
2022/10/19 00:26:55;;;;;;;3.22;2.92;;;;;19.50;101715.00;;;;2068750;28;20462;-52
2022/10/19 00:27:55;;;;;;;3.40;3.10;;;;;19.50;101716.00;;;;2062739;28;20223;-52
2022/10/19 00:28:56;;;;;;;4.70;2.93;;;;;19.50;101718.00;;;;2067427;28;20214;-52
2022/10/19 00:29:56;;;;;;;4.67;3.73;;;;;19.50;101719.00;;;;2069164;28;20210;-52
2022/10/19 00:31:11;;;;;;;3.83;3.30;;;;;19.50;101715.00;;;;2069545;28;20579;-51
2022/10/19 00:32:11;;;;;;;3.63;2.90;;;;;19.50;101714.00;;;;2069772;28;20851;-51
2022/10/19 00:33:11;;;;;;;3.93;3.23;;;;;19.50;101710.00;;;;2067962;28;21023;-51
2022/10/19 00:34:12;;;;;;;3.60;3.30;;;;;19.50;101709.00;;;;2062810;28;20223;-50
2022/10/19 00:35:12;;;;;;;3.63;3.33;;;;;19.50;101717.00;;;;2062965;28;20218;-52
2022/10/19 00:36:22;;;;;;;3.47;3.17;;;;;19.50;101713.00;;;;2061392;28;20703;-51
2022/10/19 00:37:22;;;;;;;3.22;2.92;;;;;19.50;101714.00;;;;2065045;28;20226;-51
2022/10/19 00:38:23;;;;;;;3.47;3.17;;;;;19.50;101711.00;;;;2065650;28;20221;-52
2022/10/19 00:39:24;;;;;;;3.23;2.93;;;;;19.50;101715.00;;;;2064460;28;20978;-50
2022/10/19 00:40:24;;;;;;;4.00;3.70;;;;;19.50;101720.00;;;;2064256;28;20280;-53
2022/10/19 00:41:26;;;;;;;3.30;3.00;;;;;19.50;101714.00;;;;2059047;28;20326;-52
2022/10/19 00:42:27;;;;;;;5.05;3.17;;;;;19.50;101720.00;;;;2068818;28;20245;-52
2022/10/19 00:43:29;;;;;;;3.30;2.83;;;;;19.50;101708.00;;;;2072559;28;20210;-51
2022/10/19 00:44:29;;;;;;;4.07;3.00;;;;;19.50;101713.00;;;;2073657;28;20210;-50
2022/10/19 00:45:29;;;;;;;3.67;2.93;;;;;19.50;101713.00;;;;2073491;28;20229;-52
2022/10/19 00:46:31;;;;;;;3.57;3.27;;;;;19.50;101713.00;;;;2073513;28;20260;-52
2022/10/19 00:47:32;;;;;;;3.63;3.30;;;;;19.50;101722.00;;;;2073607;28;20232;-50
2022/10/19 00:48:32;;;;;;;3.30;3.00;;;;;19.50;101719.00;;;;2073667;28;20214;-51
2022/10/19 00:49:34;;;;;;;4.17;3.23;;;;;19.50;101722.00;;;;2073033;28;20276;-52
2022/10/19 00:50:35;;;;;;;3.53;3.22;;;;;19.50;101718.00;;;;2067917;28;20215;-51
2022/10/19 00:51:37;;;;;;;3.57;3.27;;;;;19.50;101715.00;;;;2065311;28;20210;-52
2022/10/19 00:52:37;;;;;;;3.25;2.95;;;;;19.50;101721.00;;;;2064902;28;20251;-51
2022/10/19 00:53:38;;;;;;;3.40;3.10;;;;;19.50;101722.00;;;;2065263;28;20246;-51
2022/10/19 00:54:38;;;;;;;3.30;3.00;;;;;19.50;101709.00;;;;2067412;28;20313;-52
2022/10/19 00:55:39;;;;;;;3.50;2.90;;;;;19.50;101709.00;;;;2072644;28;20224;-51
2022/10/19 00:56:40;;;;;;;3.60;3.30;;;;;19.50;101696.00;;;;2073706;28;20288;-51
2022/10/19 00:57:41;;;;;;;3.50;3.20;;;;;19.50;101724.00;;;;2061453;28;20221;-52
2022/10/19 00:58:42;;;;;;;3.53;3.00;;;;;19.50;101718.00;;;;2062017;28;20253;-52
2022/10/19 00:59:43;;;;;;;3.70;3.40;;;;;18.60;101715.00;;;;2073156;28;20697;-51
2022/10/19 01:00:43;;;;;;;3.20;2.90;;;;;19.50;101720.00;;;;2065412;28;20316;-52
2022/10/19 01:01:44;;;;;;;3.40;3.10;;;;;19.50;101716.00;;;;2072719;28;20232;-53
2022/10/19 01:02:45;;;;;;;3.17;2.97;;;;;19.50;101724.00;;;;2065109;28;20211;-52
2022/10/19 01:03:45;;;;;;;4.33;3.47;;;;;19.50;101717.00;;;;2069294;28;20241;-52
2022/10/19 01:04:47;;;;;;;3.30;3.00;;;;;19.50;101716.00;;;;2069799;28;20471;-52
2022/10/19 01:05:48;;;;;;;3.50;3.20;;;;;19.50;101714.00;;;;2066401;28;20301;-52
2022/10/19 01:06:48;;;;;;;4.03;3.70;;;;;19.50;101704.00;;;;2065704;28;20215;-51
2022/10/19 01:07:48;;;;;;;3.33;3.00;;;;;19.50;101715.00;;;;2065932;28;20218;-51
2022/10/19 01:08:49;;;;;;;3.37;3.07;;;;;19.50;101715.00;;;;2065937;28;20215;-52
2022/10/19 01:09:49;;;;;;;3.63;3.20;;;;;19.50;101724.00;;;;2065944;28;20246;-52
2022/10/19 01:11:14;;;;;;;3.70;3.40;;;;;19.50;101712.00;;;;2065810;28;20218;-52
2022/10/19 01:12:30;;;;;;;3.72;3.28;;;;;19.50;101718.00;;;;2066400;28;20210;-51
2022/10/19 01:13:52;;;;;;;3.70;3.40;;;;;19.50;101706.00;;;;2065233;28;20698;-52
2022/10/19 01:15:19;;;;;;;3.50;3.20;;;;;19.50;101717.00;;;;2057581;28;20218;-52
2022/10/19 01:16:23;;;;;;;3.40;3.10;;;;;19.50;101714.00;;;;2064394;28;20244;-52
2022/10/19 01:17:43;;;;;;;3.70;3.40;;;;;19.50;101707.00;;;;2057293;28;20598;-52
2022/10/19 01:18:48;;;;;;;3.70;3.40;;;;;19.50;101705.00;;;;2061029;28;20237;-52
2022/10/19 01:20:04;;;;;;;3.92;3.53;;;;;19.50;101715.00;;;;2061433;28;20209;-52
2022/10/19 01:21:34;;;;;;;3.30;3.10;;;;;19.50;101695.00;;;;2073813;28;20217;-52
2022/10/19 01:22:51;;;;;;;3.67;3.30;;;;;19.40;101705.00;;;;2064824;28;20219;-52
2022/10/19 01:24:39;;;;;;;2.95;2.72;;;;;19.50;101700.00;;;;2069021;28;20214;-51
2022/10/19 01:25:53;;;;;;;3.45;2.72;;;;;19.50;101697.00;;;;2067699;28;20774;-52
2022/10/19 01:27:18;;;;;;;4.40;3.60;;;;;19.50;101699.00;;;;2067495;28;20235;-51
2022/10/19 01:28:56;;;;;;;3.45;3.15;;;;;19.50;101679.00;;;;2069956;28;20275;-52
2022/10/19 01:30:06;;;;;;;3.60;3.30;;;;;19.50;101698.00;;;;2053226;28;20623;-52
2022/10/19 01:31:27;;;;;;;3.75;3.45;;;;;19.50;101690.00;;;;2062801;28;20232;-52
2022/10/19 01:32:42;;;;;;;3.38;3.08;;;;;19.50;101691.00;;;;2065854;28;20675;-52
2022/10/19 01:33:45;;;;;;;3.20;3.00;;;;;19.50;101691.00;;;;2069190;28;20274;-52
2022/10/19 01:34:46;;;;;;;3.90;3.60;;;;;19.50;101694.00;;;;2064606;28;20231;-51
2022/10/19 01:36:08;;;;;;;4.13;3.80;;;;;19.40;101690.00;;;;2066242;28;20864;-51
2022/10/19 01:37:34;;;;;;;3.50;3.20;;;;;19.40;101690.00;;;;2071057;28;20230;-52
2022/10/19 01:38:38;;;;;;;3.97;3.47;;;;;19.40;101691.00;;;;2072790;28;20213;-52
2022/10/19 01:39:54;;;;;;;3.58;3.28;;;;;19.40;101690.00;;;;2072709;28;20244;-52
2022/10/19 01:41:08;;;;;;;3.70;3.40;;;;;19.40;101692.00;;;;2073483;28;20218;-56
2022/10/19 01:42:13;;;;;;;3.97;3.65;;;;;19.40;101693.00;;;;2071163;28;20308;-51
2022/10/19 01:43:19;;;;;;;3.53;3.22;;;;;19.40;101686.00;;;;2066477;28;20209;-52
2022/10/19 01:44:38;;;;;;;3.35;3.05;;;;;19.40;101691.00;;;;2072663;28;20477;-52
2022/10/19 01:45:46;;;;;;;3.80;3.30;;;;;19.40;101684.00;;;;2057671;28;20591;-51
2022/10/19 01:46:53;;;;;;;4.15;3.33;;;;;19.40;101670.00;;;;2066047;28;20211;-50
2022/10/19 01:47:58;;;;;;;4.10;3.70;;;;;19.40;101681.00;;;;2066343;28;20310;-52
2022/10/19 01:49:14;;;;;;;3.63;3.33;;;;;19.50;101682.00;;;;2070922;28;20309;-51
2022/10/19 01:50:41;;;;;;;4.32;3.92;;;;;19.40;101668.00;;;;2072191;28;20212;-54
2022/10/19 01:51:45;;;;;;;3.65;3.35;;;;;19.40;101677.00;;;;2067050;28;20246;-50
2022/10/19 01:52:45;;;;;;;3.60;3.30;;;;;19.40;101660.00;;;;2061377;28;20215;-51
2022/10/19 01:53:48;;;;;;;3.80;3.50;;;;;19.40;101682.00;;;;2055868;28;20368;-52
2022/10/19 01:54:50;;;;;;;3.63;3.33;;;;;19.40;101683.00;;;;2063906;28;20731;-51
2022/10/19 01:55:51;;;;;;;3.90;3.50;;;;;19.40;101665.00;;;;2062362;28;20214;-51
2022/10/19 01:56:51;;;;;;;2.97;2.70;;;;;19.40;101687.00;;;;2039508;28;20224;-51
2022/10/19 01:57:58;;;;;;;4.23;3.13;;;;;19.40;101684.00;;;;2038805;28;20248;-50
2022/10/19 01:59:00;;;;;;;3.50;3.20;;;;;19.40;101681.00;;;;2044640;28;20227;-51
2022/10/19 02:00:06;;;;;;;3.45;3.15;;;;;19.40;101684.00;;;;2062727;28;20691;-52
2022/10/19 02:01:07;;;;;;;3.50;3.20;;;;;19.50;101685.00;;;;2071165;28;20217;-52
2022/10/19 02:02:08;;;;;;;3.70;3.40;;;;;19.40;101689.00;;;;2069754;28;20791;-52
2022/10/19 02:03:09;;;;;;;4.73;3.47;;;;;19.40;101687.00;;;;2062012;28;20933;-52
2022/10/19 02:04:10;;;;;;;3.43;3.17;;;;;19.40;101685.00;;;;2054184;28;20219;-52
2022/10/19 02:05:10;;;;;;;3.50;3.20;;;;;19.40;101673.00;;;;2054867;28;20223;-52
2022/10/19 02:06:11;;;;;;;3.50;3.20;;;;;19.40;101680.00;;;;2045838;28;20257;-52
2022/10/19 02:07:11;;;;;;;3.03;2.83;;;;;19.40;101690.00;;;;2042850;28;20378;-52
2022/10/19 02:08:27;;;;;;;3.47;3.17;;;;;19.40;101687.00;;;;2063426;28;20589;-52
2022/10/19 02:09:28;;;;;;;3.38;3.05;;;;;19.40;101686.00;;;;2063677;28;20282;-52
2022/10/19 02:10:28;;;;;;;3.70;3.30;;;;;19.40;101687.00;;;;2063647;28;20257;-52
2022/10/19 02:11:29;;;;;;;3.80;3.40;;;;;19.40;101685.00;;;;2070645;28;20210;-52
2022/10/19 02:12:29;;;;;;;3.53;3.23;;;;;19.40;101682.00;;;;2061594;28;21550;-55
2022/10/19 02:13:29;;;;;;;3.27;3.07;;;;;19.40;101669.00;;;;2052820;28;20223;-54
2022/10/19 02:14:33;;;;;;;3.00;2.80;;;;;19.40;101681.00;;;;2048024;28;20224;-51
2022/10/19 02:15:36;;;;;;;3.70;3.40;;;;;19.40;101661.00;;;;2059924;28;20218;-50
2022/10/19 02:16:44;;;;;;;3.65;3.35;;;;;19.40;101677.00;;;;2063808;28;20223;-52
2022/10/19 02:17:46;;;;;;;3.50;3.17;;;;;19.40;101674.00;;;;2065840;28;20309;-53
2022/10/19 02:18:48;;;;;;;3.45;3.15;;;;;19.40;101678.00;;;;2059323;28;20629;-51
2022/10/19 02:19:48;;;;;;;3.42;3.13;;;;;19.40;101677.00;;;;2048305;28;20216;-52
2022/10/19 02:20:49;;;;;;;3.10;2.90;;;;;19.40;101679.00;;;;2065588;28;20207;-52
2022/10/19 02:21:50;;;;;;;3.37;3.10;;;;;19.40;101675.00;;;;2071027;28;20436;-52
2022/10/19 02:22:51;;;;;;;3.13;2.83;;;;;19.40;101664.00;;;;2071952;28;20277;-51
2022/10/19 02:23:52;;;;;;;3.85;3.30;;;;;19.40;101675.00;;;;2071324;28;20210;-51
2022/10/19 02:24:52;;;;;;;3.67;3.37;;;;;19.40;101675.00;;;;2072448;28;20643;-51
2022/10/19 02:25:52;;;;;;;3.80;3.00;;;;;19.40;101681.00;;;;2072372;28;20218;-50
2022/10/19 02:26:53;;;;;;;3.20;2.90;;;;;19.40;101657.00;;;;2072201;28;20741;-51
2022/10/19 02:27:53;;;;;;;3.13;2.90;;;;;19.40;101668.00;;;;2071950;28;20622;-53
2022/10/19 02:28:54;;;;;;;4.23;3.13;;;;;19.40;101665.00;;;;2072431;28;20768;-52
2022/10/19 02:29:54;;;;;;;3.77;3.47;;;;;19.40;101662.00;;;;2069529;28;20248;-51
2022/10/19 02:30:55;;;;;;;3.37;2.90;;;;;19.40;101654.00;;;;2070070;28;20220;-52
2022/10/19 02:31:55;;;;;;;3.47;3.17;;;;;19.40;101701.00;;;;2070473;28;20241;-51
2022/10/19 02:32:55;;;;;;;3.50;3.20;;;;;19.40;101659.00;;;;2071918;28;20595;-51
2022/10/19 02:33:56;;;;;;;3.77;3.47;;;;;19.40;101655.00;;;;2070986;28;20598;-52
2022/10/19 02:34:57;;;;;;;2.83;2.63;;;;;19.40;101665.00;;;;2070448;28;20836;-52
2022/10/19 02:35:58;;;;;;;3.83;3.40;;;;;19.40;101652.00;;;;2067809;28;20338;-51
2022/10/19 02:36:58;;;;;;;3.00;2.80;;;;;19.40;101667.00;;;;2059985;28;20226;-52
2022/10/19 02:37:59;;;;;;;3.63;3.33;;;;;19.40;101643.00;;;;2059862;28;20227;-52
2022/10/19 02:38:59;;;;;;;3.20;2.90;;;;;19.40;101655.00;;;;2063041;28;20262;-52
2022/10/19 02:40:02;;;;;;;3.53;3.23;;;;;19.40;101655.00;;;;2063964;28;20226;-52
2022/10/19 02:41:07;;;;;;;3.60;3.30;;;;;19.40;101654.00;;;;2071430;28;20247;-51
2022/10/19 02:42:07;;;;;;;3.25;3.00;;;;;19.40;101657.00;;;;2054627;28;20390;-51
2022/10/19 02:43:14;;;;;;;3.33;3.03;;;;;19.40;101661.00;;;;2063272;28;20222;-50
2022/10/19 02:44:19;;;;;;;3.25;2.95;;;;;19.40;101656.00;;;;2065934;28;20296;-52
2022/10/19 02:45:28;;;;;;;2.92;2.63;;;;;19.40;101655.00;;;;2070418;28;20273;-52
2022/10/19 02:46:33;;;;;;;3.40;3.10;;;;;19.40;101663.00;;;;2057851;28;20646;-52
2022/10/19 02:47:41;;;;;;;3.75;3.20;;;;;19.40;101662.00;;;;2070168;28;20313;-52
2022/10/19 02:48:42;;;;;;;3.40;3.10;;;;;19.40;101657.00;;;;2068622;28;20211;-51
2022/10/19 02:49:42;;;;;;;3.47;3.17;;;;;19.40;101657.00;;;;2063219;28;20210;-51
2022/10/19 02:50:43;;;;;;;3.03;2.73;;;;;19.40;101666.00;;;;2066620;28;20214;-51
2022/10/19 02:52:03;;;;;;;3.70;3.40;;;;;19.40;101656.00;;;;2070996;28;20227;-51
2022/10/19 02:53:04;;;;;;;3.50;3.20;;;;;19.40;101666.00;;;;2069092;28;20221;-52
2022/10/19 02:54:05;;;;;;;3.40;3.10;;;;;19.40;101665.00;;;;2065895;28;20694;-50
2022/10/19 02:55:06;;;;;;;3.72;3.42;;;;;19.40;101646.00;;;;2063663;28;20309;-56
2022/10/19 02:56:08;;;;;;;3.50;3.20;;;;;19.40;101655.00;;;;2066684;28;20715;-52
2022/10/19 02:57:18;;;;;;;3.33;3.00;;;;;19.40;101654.00;;;;2063309;28;20222;-52
2022/10/19 02:58:19;;;;;;;3.13;2.92;;;;;19.40;101654.00;;;;2064103;28;20623;-51
2022/10/19 02:59:19;;;;;;;3.00;2.80;;;;;19.40;101655.00;;;;2064217;28;20301;-52
2022/10/19 03:00:19;;;;;;;3.57;3.13;;;;;19.40;101653.00;;;;2062690;28;20793;-52
2022/10/19 03:01:20;;;;;;;3.20;3.00;;;;;19.40;101655.00;;;;2061921;28;20879;-52
2022/10/19 03:02:21;;;;;;;4.40;3.27;;;;;19.40;101651.00;;;;2062747;28;20254;-52
2022/10/19 03:03:21;;;;;;;3.30;3.00;;;;;19.40;101658.00;;;;2067723;28;20221;-51
2022/10/19 03:04:22;;;;;;;4.50;2.90;;;;;19.40;101664.00;;;;2069655;28;20249;-51
2022/10/19 03:05:22;;;;;;;2.70;2.50;;;;;19.40;101654.00;;;;2071906;28;20252;-51
2022/10/19 03:06:22;;;;;;;3.20;2.90;;;;;19.40;101654.00;;;;2072245;28;20202;-52
2022/10/19 03:07:23;;;;;;;2.80;2.60;;;;;19.40;101650.00;;;;2067537;28;20278;-51
2022/10/19 03:08:23;;;;;;;3.20;2.90;;;;;19.40;101643.00;;;;2067926;28;20218;-52
2022/10/19 03:09:23;;;;;;;4.10;3.10;;;;;19.40;101649.00;;;;2065678;28;20211;-52
2022/10/19 03:10:24;;;;;;;3.20;3.00;;;;;19.40;101646.00;;;;2063293;28;20222;-52
2022/10/19 03:11:24;;;;;;;2.80;2.60;;;;;19.40;101641.00;;;;2070757;28;20256;-52
2022/10/19 03:12:24;;;;;;;3.20;2.80;;;;;19.40;101642.00;;;;2069800;28;20218;-53
2022/10/19 03:13:25;;;;;;;3.20;2.90;;;;;19.40;101643.00;;;;2071681;28;20310;-51
2022/10/19 03:14:25;;;;;;;3.10;2.90;;;;;19.40;101645.00;;;;2070648;28;20214;-52
2022/10/19 03:15:28;;;;;;;3.10;2.73;;;;;19.40;101649.00;;;;2071524;28;20276;-53
2022/10/19 03:16:28;;;;;;;4.65;3.15;;;;;19.40;101652.00;;;;2069823;28;20222;-52
2022/10/19 03:17:29;;;;;;;3.60;3.30;;;;;19.40;101656.00;;;;2071431;28;20228;-52
2022/10/19 03:18:29;;;;;;;3.80;3.40;;;;;19.40;101644.00;;;;2071357;28;20233;-50
2022/10/19 03:19:29;;;;;;;4.10;2.90;;;;;19.40;101650.00;;;;2071468;28;20621;-52
2022/10/19 03:20:30;;;;;;;4.33;3.07;;;;;19.40;101653.00;;;;2066599;28;20227;-52
2022/10/19 03:21:30;;;;;;;3.43;3.13;;;;;19.40;101653.00;;;;2063680;28;20215;-52
2022/10/19 03:22:30;;;;;;;4.10;3.70;;;;;19.40;101646.00;;;;2061845;28;20221;-52
2022/10/19 03:23:31;;;;;;;3.47;3.17;;;;;19.40;101652.00;;;;2064365;28;20242;-53
2022/10/19 03:24:32;;;;;;;3.20;2.90;;;;;19.40;101644.00;;;;2063661;28;20277;-50
2022/10/19 03:25:33;;;;;;;4.50;3.27;;;;;19.40;101646.00;;;;2060162;28;21121;-52
2022/10/19 03:26:33;;;;;;;3.67;3.23;;;;;19.40;101647.00;;;;2064320;28;20224;-52
2022/10/19 03:27:34;;;;;;;3.50;3.20;;;;;19.40;101643.00;;;;2069628;28;20476;-52
2022/10/19 03:28:34;;;;;;;2.97;2.77;;;;;19.40;101646.00;;;;2071492;28;20225;-51
2022/10/19 03:29:34;;;;;;;3.20;2.90;;;;;19.40;101643.00;;;;2071893;28;20251;-53
2022/10/19 03:30:35;;;;;;;3.13;2.90;;;;;19.40;101645.00;;;;2068720;28;20273;-53
2022/10/19 03:31:35;;;;;;;3.97;3.03;;;;;19.40;101640.00;;;;2063279;28;20715;-50
2022/10/19 03:32:35;;;;;;;2.70;2.50;;;;;19.30;101636.00;;;;2069826;28;20222;-52
2022/10/19 03:33:36;;;;;;;3.07;2.87;;;;;19.30;101643.00;;;;2063049;28;20223;-52
2022/10/19 03:34:36;;;;;;;2.73;2.53;;;;;19.40;101640.00;;;;2070807;28;20308;-51
2022/10/19 03:35:36;;;;;;;2.90;2.70;;;;;19.40;101643.00;;;;2070999;28;20233;-52
2022/10/19 03:36:37;;;;;;;2.70;2.50;;;;;19.40;101640.00;;;;2067141;28;20219;-52
2022/10/19 03:37:38;;;;;;;3.30;3.10;;;;;19.40;101637.00;;;;2067887;28;20227;-53
2022/10/19 03:38:38;;;;;;;3.67;3.37;;;;;19.30;101642.00;;;;2065880;28;20242;-51
2022/10/19 03:39:39;;;;;;;3.00;2.80;;;;;19.40;101640.00;;;;2062379;28;20211;-52
2022/10/19 03:40:39;;;;;;;3.13;2.83;;;;;19.40;101642.00;;;;2070492;28;20220;-52
2022/10/19 03:41:40;;;;;;;2.80;2.60;;;;;19.40;101643.00;;;;2070337;28;20218;-52
2022/10/19 03:42:40;;;;;;;3.33;3.03;;;;;19.40;101641.00;;;;2061184;28;20223;-52
2022/10/19 03:43:40;;;;;;;3.07;2.80;;;;;19.30;101636.00;;;;2063076;28;20762;-52
2022/10/19 03:44:41;;;;;;;3.57;2.47;;;;;19.40;101640.00;;;;2067216;28;20634;-51
2022/10/19 03:45:45;;;;;;;3.27;2.97;;;;;19.40;101649.00;;;;2070429;28;20570;-52
2022/10/19 03:46:45;;;;;;;2.70;2.50;;;;;19.30;101625.00;;;;2062822;28;20207;-52
2022/10/19 03:47:49;;;;;;;3.10;2.87;;;;;19.40;101534.00;;;;2065811;28;20241;-52
2022/10/19 03:48:50;;;;;;;3.72;2.50;;;;;19.40;101649.00;;;;2063384;28;20616;-52
2022/10/19 03:49:50;;;;;;;3.00;2.70;;;;;19.40;101647.00;;;;2064332;28;20215;-53
2022/10/19 03:51:04;;;;;;;2.93;2.73;;;;;19.30;101644.00;;;;2066282;28;20801;-53
2022/10/19 03:52:05;;;;;;;3.08;2.88;;;;;19.30;101653.00;;;;2066033;28;20241;-52
2022/10/19 03:53:05;;;;;;;2.67;2.47;;;;;19.30;101653.00;;;;2070673;28;20578;-52
2022/10/19 03:54:07;;;;;;;2.77;2.53;;;;;19.30;101647.00;;;;2070821;28;20213;-52
2022/10/19 03:55:08;;;;;;;2.67;2.47;;;;;19.30;101657.00;;;;2062811;28;20215;-52
2022/10/19 03:56:13;;;;;;;2.53;2.33;;;;;19.30;101662.00;;;;2062443;28;20225;-52
2022/10/19 03:57:14;;;;;;;2.63;2.42;;;;;19.30;101659.00;;;;2060804;28;20466;-52
2022/10/19 03:58:14;;;;;;;4.00;2.93;;;;;19.30;101659.00;;;;2069248;28;20217;-52
2022/10/19 03:59:15;;;;;;;2.77;2.53;;;;;19.30;101665.00;;;;2062659;28;20253;-52
2022/10/19 04:00:16;;;;;;;2.70;2.50;;;;;19.30;101654.00;;;;2062678;28;20226;-51
2022/10/19 04:01:22;;;;;;;2.70;2.50;;;;;19.30;101661.00;;;;2061489;28;20219;-55
2022/10/19 04:02:22;;;;;;;4.55;2.78;;;;;19.30;101659.00;;;;2066559;28;20295;-52
2022/10/19 04:03:24;;;;;;;3.20;2.90;;;;;19.30;101660.00;;;;2069156;28;20214;-51
2022/10/19 04:04:25;;;;;;;2.95;2.67;;;;;19.30;101662.00;;;;2064055;28;20242;-52
2022/10/19 04:05:25;;;;;;;2.57;2.37;;;;;19.30;101656.00;;;;2062779;28;20214;-52
2022/10/19 04:06:30;;;;;;;2.80;2.60;;;;;19.30;101662.00;;;;2063278;28;20338;-52
2022/10/19 04:07:31;;;;;;;3.33;2.70;;;;;19.30;101665.00;;;;2069348;28;20222;-52
2022/10/19 04:08:32;;;;;;;2.90;2.67;;;;;19.30;101641.00;;;;2071183;28;20253;-52
2022/10/19 04:09:33;;;;;;;2.60;2.40;;;;;19.30;101660.00;;;;2070717;28;20301;-51
2022/10/19 04:10:33;;;;;;;3.28;2.63;;;;;19.40;101659.00;;;;2055480;28;20214;-51
2022/10/19 04:11:34;;;;;;;2.90;2.70;;;;;19.30;101661.00;;;;2067614;28;21040;-51
2022/10/19 04:12:34;;;;;;;2.90;2.70;;;;;19.30;101663.00;;;;2074644;28;20220;-51
2022/10/19 04:13:34;;;;;;;2.90;2.60;;;;;19.30;101658.00;;;;2063005;28;20226;-51
2022/10/19 04:14:35;;;;;;;2.90;2.60;;;;;19.30;101655.00;;;;2068439;28;20224;-51
2022/10/19 04:15:35;;;;;;;2.73;2.53;;;;;19.30;101657.00;;;;2068276;28;20216;-51
2022/10/19 04:16:35;;;;;;;2.40;2.20;;;;;19.30;101664.00;;;;2069988;28;20218;-51
2022/10/19 04:17:36;;;;;;;3.20;2.13;;;;;19.30;101662.00;;;;2068954;28;20214;-51
2022/10/19 04:18:37;;;;;;;3.20;2.33;;;;;19.30;101662.00;;;;2064975;28;20219;-51
2022/10/19 04:19:37;;;;;;;2.70;2.50;;;;;19.40;101657.00;;;;2061696;28;20248;-51
2022/10/19 04:20:41;;;;;;;2.53;2.33;;;;;19.30;101659.00;;;;2069317;28;20238;-50
2022/10/19 04:21:43;;;;;;;3.08;2.42;;;;;19.30;101655.00;;;;2069993;28;20812;-51
2022/10/19 04:22:43;;;;;;;2.65;2.45;;;;;19.30;101658.00;;;;2069955;28;20559;-51
2022/10/19 04:23:43;;;;;;;3.17;2.87;;;;;19.30;101661.00;;;;2067623;28;20230;-51
2022/10/19 04:24:44;;;;;;;2.70;2.50;;;;;19.30;101656.00;;;;2062238;28;20255;-51
2022/10/19 04:25:44;;;;;;;3.73;2.50;;;;;19.30;101659.00;;;;2062305;28;20749;-51
2022/10/19 04:26:49;;;;;;;2.37;2.17;;;;;19.30;101658.00;;;;2061946;28;20254;-51
2022/10/19 04:27:49;;;;;;;3.20;2.90;;;;;19.30;101662.00;;;;2061699;28;20374;-51
2022/10/19 04:28:50;;;;;;;2.53;2.33;;;;;19.30;101656.00;;;;2062123;28;20342;-51
2022/10/19 04:29:50;;;;;;;2.40;2.20;;;;;19.30;101650.00;;;;2065742;28;22559;-50
2022/10/19 04:30:50;;;;;;;2.80;2.50;;;;;19.30;101651.00;;;;2062242;28;20257;-51
2022/10/19 04:31:52;;;;;;;2.93;2.73;;;;;19.30;101655.00;;;;2061133;28;20536;-53
2022/10/19 04:32:53;;;;;;;3.20;2.60;;;;;19.30;101653.00;;;;2061288;28;20235;-51
2022/10/19 04:33:54;;;;;;;2.40;2.20;;;;;19.30;101660.00;;;;2061566;28;20745;-51
2022/10/19 04:34:54;;;;;;;2.93;2.60;;;;;19.30;101654.00;;;;2067873;28;20667;-50
2022/10/19 04:36:01;;;;;;;2.70;2.50;;;;;19.30;101649.00;;;;2063458;28;20635;-50
2022/10/19 04:37:02;;;;;;;2.80;2.40;;;;;19.30;101652.00;;;;2066601;28;20569;-50
2022/10/19 04:38:02;;;;;;;2.50;2.30;;;;;19.30;101661.00;;;;2069503;28;20313;-51
2022/10/19 04:39:03;;;;;;;2.63;2.43;;;;;19.30;101642.00;;;;2069666;28;20615;-51
2022/10/19 04:40:04;;;;;;;2.13;1.92;;;;;19.30;101647.00;;;;2069412;28;20764;-51
2022/10/19 04:41:07;;;;;;;3.13;2.63;;;;;19.30;101643.00;;;;2069785;28;20264;-51
2022/10/19 04:42:07;;;;;;;2.45;2.25;;;;;19.30;101645.00;;;;2062431;28;20683;-51
2022/10/19 04:43:08;;;;;;;2.70;2.30;;;;;19.30;101659.00;;;;2062320;28;20305;-50
2022/10/19 04:44:09;;;;;;;2.50;2.30;;;;;19.30;101640.00;;;;2062061;28;20207;-51
2022/10/19 04:45:09;;;;;;;2.80;2.50;;;;;19.30;101646.00;;;;2062039;28;20218;-51
2022/10/19 04:46:12;;;;;;;2.50;2.30;;;;;19.30;101644.00;;;;2065988;28;20325;-51
2022/10/19 04:47:13;;;;;;;2.70;2.50;;;;;19.30;101646.00;;;;2069333;28;20558;-50
2022/10/19 04:48:13;;;;;;;2.60;2.40;;;;;19.30;101640.00;;;;2068354;28;20257;-50
2022/10/19 04:49:13;;;;;;;2.30;2.10;;;;;19.30;101650.00;;;;2067741;28;20218;-50
2022/10/19 04:50:14;;;;;;;2.77;2.57;;;;;19.30;101638.00;;;;2061449;28;20354;-51
2022/10/19 04:51:14;;;;;;;2.63;2.43;;;;;19.30;101641.00;;;;2059096;28;20360;-51
2022/10/19 04:52:15;;;;;;;2.53;2.00;;;;;19.30;101641.00;;;;2060136;28;20215;-51
2022/10/19 04:53:15;;;;;;;2.30;2.10;;;;;19.30;101631.00;;;;2061651;28;20234;-51
2022/10/19 04:54:16;;;;;;;2.40;2.20;;;;;19.30;101643.00;;;;2062395;28;20223;-51
2022/10/19 04:55:16;;;;;;;2.77;2.57;;;;;19.30;101639.00;;;;2062505;28;20221;-51
2022/10/19 04:56:21;;;;;;;4.10;2.50;;;;;19.30;101639.00;;;;2062329;28;20227;-51
2022/10/19 04:57:21;;;;;;;2.80;2.60;;;;;19.30;101644.00;;;;2070120;28;20706;-50
2022/10/19 04:58:22;;;;;;;2.40;2.20;;;;;19.30;101637.00;;;;2063213;28;20241;-50
2022/10/19 04:59:22;;;;;;;2.50;2.30;;;;;19.30;101636.00;;;;2061155;28;20218;-50
2022/10/19 05:00:23;;;;;;;3.60;2.20;;;;;19.30;101552.00;;;;2061896;28;20257;-51
2022/10/19 05:01:24;;;;;;;2.70;2.50;;;;;19.30;101638.00;;;;2062166;28;20234;-50
2022/10/19 05:02:24;;;;;;;3.08;2.78;;;;;19.30;101641.00;;;;2061262;28;20644;-51
2022/10/19 05:03:24;;;;;;;2.70;2.50;;;;;19.30;101638.00;;;;2068620;28;20218;-51
2022/10/19 05:04:25;;;;;;;3.27;2.53;;;;;19.30;101640.00;;;;2065341;28;20230;-51
2022/10/19 05:05:25;;;;;;;3.03;2.77;;;;;19.30;101636.00;;;;2062160;28;20297;-55
2022/10/19 05:06:26;;;;;;;2.57;2.30;;;;;19.30;101638.00;;;;2062201;28;20222;-53
2022/10/19 05:07:26;;;;;;;3.03;2.80;;;;;19.30;101630.00;;;;2062116;28;20280;-52
2022/10/19 05:08:26;;;;;;;2.60;2.40;;;;;19.30;101634.00;;;;2062407;28;20747;-53
2022/10/19 05:09:27;;;;;;;2.60;2.37;;;;;19.30;101633.00;;;;2062443;28;20313;-51
2022/10/19 05:10:27;;;;;;;2.70;2.50;;;;;19.30;101629.00;;;;2062485;28;20562;-51
2022/10/19 05:11:27;;;;;;;2.70;2.50;;;;;19.30;101640.00;;;;2061666;28;20642;-52